Time;durP1;ratioP1;P1;durP2;ratioP2;P2;SDS_P1;SDS_P2;PMS_P1;PMS_P2;Temp;Humidity;BMP_temperature;BMP_pressure;BME280_temperature;BME280_humidity;BME280_pressure;Samples;Min_cycle;Max_cycle;Signal;HPM_P1;HPM_P2
2022/06/27 00:02:17;;;;;;;3.35;2.15;;;24.10;57.80;;;;;;5064928;28;20036;-62
2022/06/27 00:04:43;;;;;;;2.72;2.30;;;24.10;58.30;;;;;;5085727;28;20028;-63
2022/06/27 00:07:11;;;;;;;1.80;1.70;;;24.10;58.80;;;;;;5080723;28;20052;-61
2022/06/27 00:09:38;;;;;;;2.75;2.00;;;24.10;59.40;;;;;;5092415;28;20073;-62
2022/06/27 00:12:04;;;;;;;2.20;2.00;;;24.10;59.70;;;;;;5086048;28;20095;-62
2022/06/27 00:14:31;;;;;;;2.35;1.92;;;24.00;60.20;;;;;;5089265;28;20028;-58
2022/06/27 00:16:57;;;;;;;2.38;1.83;;;24.00;60.50;;;;;;5087560;28;20024;-59
2022/06/27 00:19:23;;;;;;;2.83;1.88;;;24.00;60.70;;;;;;5083612;28;20031;-61
2022/06/27 00:21:49;;;;;;;2.13;1.75;;;24.00;61.10;;;;;;5086790;28;20099;-63
2022/06/27 00:24:15;;;;;;;2.83;1.88;;;24.00;61.10;;;;;;5087116;28;20037;-62
2022/06/27 00:26:41;;;;;;;4.60;1.98;;;24.00;61.10;;;;;;5084109;28;20287;-60
2022/06/27 00:29:07;;;;;;;2.80;2.00;;;24.00;60.70;;;;;;5079587;28;20033;-62
2022/06/27 00:31:33;;;;;;;2.03;1.83;;;23.90;60.80;;;;;;5082825;28;20033;-62
2022/06/27 00:33:59;;;;;;;1.90;1.80;;;24.00;60.80;;;;;;5077989;28;20401;-62
2022/06/27 00:36:26;;;;;;;2.45;2.25;;;23.90;60.80;;;;;;5075365;28;20025;-63
2022/06/27 00:38:52;;;;;;;2.30;2.08;;;23.90;61.10;;;;;;5083679;28;20032;-62
2022/06/27 00:41:18;;;;;;;2.97;1.90;;;23.90;60.70;;;;;;5092897;28;20030;-63
2022/06/27 00:43:44;;;;;;;5.13;1.92;;;23.90;60.50;;;;;;5083058;28;20052;-60
2022/06/27 00:46:11;;;;;;;2.72;2.10;;;23.90;60.50;;;;;;5089360;28;20112;-60
2022/06/27 00:48:37;;;;;;;1.90;1.80;;;23.90;60.70;;;;;;5080933;28;20481;-60
2022/06/27 00:51:03;;;;;;;2.30;1.80;;;23.80;60.60;;;;;;5085682;28;20277;-63
2022/06/27 00:53:29;;;;;;;1.83;1.70;;;23.80;60.80;;;;;;5077709;28;20029;-60
2022/06/27 00:55:57;;;;;;;1.92;1.70;;;23.80;60.80;;;;;;5063081;28;20285;-61
2022/06/27 00:58:23;;;;;;;2.10;1.83;;;23.80;60.80;;;;;;5066430;28;20046;-58
2022/06/27 01:00:49;;;;;;;1.80;1.70;;;23.80;60.80;;;;;;5081622;28;20028;-61
2022/06/27 01:03:15;;;;;;;1.83;1.70;;;23.80;60.90;;;;;;5086091;28;20035;-60
2022/06/27 01:05:51;;;;;;;1.70;1.60;;;23.80;60.80;;;;;;5087867;28;20028;-62
2022/06/27 01:08:20;;;;;;;2.20;1.60;;;23.80;60.50;;;;;;5081983;28;20023;-57
2022/06/27 01:10:47;;;;;;;2.38;1.70;;;23.70;60.60;;;;;;5081603;28;20043;-61
2022/06/27 01:13:13;;;;;;;2.03;1.70;;;23.70;60.60;;;;;;5078614;28;20029;-61
2022/06/27 01:15:40;;;;;;;2.38;1.90;;;23.70;60.60;;;;;;5078862;28;20055;-60
2022/06/27 01:18:07;;;;;;;1.90;1.80;;;23.70;60.60;;;;;;5080291;28;20032;-59
2022/06/27 01:20:33;;;;;;;1.98;1.75;;;23.70;60.30;;;;;;5081466;28;20109;-64
2022/06/27 01:23:00;;;;;;;1.80;1.70;;;23.70;60.50;;;;;;5062538;28;20025;-64
2022/06/27 01:25:26;;;;;;;2.00;1.90;;;23.70;60.70;;;;;;5092304;28;20024;-64
2022/06/27 01:27:52;;;;;;;1.70;1.40;;;23.60;60.50;;;;;;5077785;28;20480;-63
2022/06/27 01:30:19;;;;;;;2.17;1.48;;;23.60;60.30;;;;;;5088510;28;20047;-63
2022/06/27 01:32:45;;;;;;;1.73;1.60;;;23.60;60.40;;;;;;5089985;28;20562;-60
2022/06/27 01:35:11;;;;;;;1.70;1.60;;;23.60;60.30;;;;;;5081505;28;20036;-59
2022/06/27 01:37:37;;;;;;;2.28;1.70;;;23.60;60.10;;;;;;5074560;28;20029;-59
2022/06/27 01:40:04;;;;;;;1.70;1.60;;;23.60;60.20;;;;;;5077484;28;20091;-59
2022/06/27 01:42:30;;;;;;;1.70;1.60;;;23.60;60.00;;;;;;5079315;28;20071;-59
2022/06/27 01:44:56;;;;;;;1.60;1.50;;;23.50;60.10;;;;;;5084908;28;20085;-61
2022/06/27 01:47:23;;;;;;;1.65;1.55;;;23.50;60.00;;;;;;5093418;28;20028;-61
2022/06/27 01:49:49;;;;;;;1.70;1.60;;;23.50;60.10;;;;;;5088097;28;20071;-59
2022/06/27 01:52:15;;;;;;;2.08;1.80;;;23.50;60.00;;;;;;5075067;28;20031;-60
2022/06/27 01:54:41;;;;;;;2.30;1.87;;;23.50;60.10;;;;;;5096243;28;20052;-60
2022/06/27 01:57:10;;;;;;;1.55;1.42;;;23.50;60.30;;;;;;5076501;28;20032;-59
2022/06/27 01:59:36;;;;;;;1.75;1.60;;;23.40;60.20;;;;;;5099699;28;20100;-59
2022/06/27 02:02:03;;;;;;;1.55;1.40;;;23.40;60.00;;;;;;5083723;28;20102;-62
2022/06/27 02:04:30;;;;;;;1.50;1.40;;;23.40;59.90;;;;;;5089487;28;20091;-59
2022/06/27 02:06:56;;;;;;;1.65;1.55;;;23.40;59.90;;;;;;5085695;28;20096;-58
2022/06/27 02:09:23;;;;;;;1.35;1.25;;;23.40;59.80;;;;;;5080947;28;20036;-61
2022/06/27 02:11:49;;;;;;;1.90;1.60;;;23.30;59.80;;;;;;5087802;28;20034;-59
2022/06/27 02:14:16;;;;;;;1.67;1.58;;;23.30;59.80;;;;;;5080046;28;20029;-58
2022/06/27 02:16:42;;;;;;;3.05;1.60;;;23.30;59.70;;;;;;5081808;28;20048;-58
2022/06/27 02:19:10;;;;;;;1.50;1.40;;;23.30;59.50;;;;;;5075601;28;20028;-60
2022/06/27 02:21:36;;;;;;;1.52;1.40;;;23.30;59.70;;;;;;5079933;28;20024;-59
2022/06/27 02:24:02;;;;;;;1.60;1.50;;;23.20;59.70;;;;;;5080448;28;20043;-59
2022/06/27 02:26:29;;;;;;;1.60;1.50;;;23.20;59.70;;;;;;5071096;28;20040;-59
2022/06/27 02:28:56;;;;;;;1.70;1.60;;;23.20;59.70;;;;;;5077340;28;20044;-59
2022/06/27 02:31:22;;;;;;;1.63;1.53;;;23.20;59.70;;;;;;5091638;28;20027;-60
2022/06/27 02:33:49;;;;;;;2.22;1.40;;;23.20;59.60;;;;;;5084431;28;20037;-60
2022/06/27 02:36:21;;;;;;;2.00;1.73;;;23.20;59.40;;;;;;5080900;28;20086;-60
2022/06/27 02:38:48;;;;;;;1.42;1.33;;;23.20;59.40;;;;;;5071995;28;20027;-60
2022/06/27 02:41:14;;;;;;;;;;;23.10;59.30;;;;;;5079576;28;20036;-58
2022/06/27 02:43:41;;;;;;;2.03;1.27;;;23.10;59.30;;;;;;5087374;28;19923;-60
2022/06/27 02:46:08;;;;;;;1.60;1.50;;;23.10;59.20;;;;;;5075741;28;20127;-60
2022/06/27 02:48:34;;;;;;;1.60;1.50;;;23.00;59.20;;;;;;5077726;28;20037;-59
2022/06/27 02:51:05;;;;;;;1.50;1.40;;;23.00;59.30;;;;;;5080079;28;20732;-58
2022/06/27 02:53:39;;;;;;;1.77;1.67;;;23.00;59.20;;;;;;5083850;28;20078;-60
2022/06/27 02:56:06;;;;;;;1.63;1.52;;;23.00;59.10;;;;;;5087278;28;20024;-61
2022/06/27 02:58:42;;;;;;;1.73;1.63;;;22.90;59.20;;;;;;5087255;28;20067;-60
2022/06/27 03:01:09;;;;;;;1.67;1.58;;;23.00;59.30;;;;;;5097592;28;20074;-59
2022/06/27 03:03:35;;;;;;;1.58;1.45;;;22.90;59.20;;;;;;5092603;28;20084;-59
2022/06/27 03:06:03;;;;;;;1.55;1.45;;;22.90;59.20;;;;;;5079554;28;20056;-59
2022/06/27 03:08:37;;;;;;;1.65;1.55;;;22.80;59.20;;;;;;5079088;28;20120;-59
2022/06/27 03:11:03;;;;;;;1.42;1.33;;;22.80;59.30;;;;;;5100547;28;20028;-59
2022/06/27 03:13:30;;;;;;;2.60;1.40;;;22.80;59.20;;;;;;5095687;28;20031;-60
2022/06/27 03:15:56;;;;;;;2.05;1.85;;;22.80;59.30;;;;;;5102008;28;20028;-59
2022/06/27 03:18:22;;;;;;;1.70;1.60;;;22.80;59.30;;;;;;5087766;28;20025;-59
2022/06/27 03:20:48;;;;;;;1.73;1.40;;;22.80;59.30;;;;;;5084179;28;20036;-59
2022/06/27 03:23:15;;;;;;;2.42;1.50;;;22.70;59.20;;;;;;5085136;28;20054;-60
2022/06/27 03:25:42;;;;;;;1.60;1.50;;;22.70;59.20;;;;;;5089602;28;20040;-59
2022/06/27 03:28:08;;;;;;;1.60;1.50;;;22.70;59.20;;;;;;5083812;28;20055;-60
2022/06/27 03:30:34;;;;;;;1.80;1.70;;;22.70;59.10;;;;;;5081786;28;20055;-60
2022/06/27 03:33:00;;;;;;;1.90;1.48;;;22.60;59.10;;;;;;5070202;28;20033;-58
2022/06/27 03:35:26;;;;;;;1.42;1.33;;;22.70;59.10;;;;;;5082026;28;20016;-59
2022/06/27 03:37:52;;;;;;;1.33;1.23;;;22.60;59.10;;;;;;5083403;28;20047;-58
2022/06/27 03:40:18;;;;;;;1.52;1.42;;;22.60;59.00;;;;;;5081851;28;20023;-58
2022/06/27 03:42:44;;;;;;;1.40;1.30;;;22.60;59.00;;;;;;5086699;28;20078;-59
2022/06/27 03:45:11;;;;;;;2.47;1.40;;;22.60;58.90;;;;;;5088400;28;20235;-59
2022/06/27 03:47:56;;;;;;;1.55;1.45;;;22.50;58.80;;;;;;5103643;28;20036;-60
2022/06/27 03:50:23;;;;;;;2.00;1.70;;;22.50;58.90;;;;;;5084129;28;20448;-61
2022/06/27 03:52:49;;;;;;;1.40;1.30;;;22.50;58.80;;;;;;5083090;28;20052;-59
2022/06/27 03:55:15;;;;;;;1.70;1.60;;;22.40;58.70;;;;;;5083553;28;20056;-59
2022/06/27 03:57:49;;;;;;;1.60;1.48;;;22.50;58.70;;;;;;5082725;28;20039;-62
2022/06/27 04:00:16;;;;;;;1.40;1.20;;;22.40;58.60;;;;;;5097060;28;20032;-62
2022/06/27 04:02:42;;;;;;;2.50;1.60;;;22.40;58.60;;;;;;5089693;28;20028;-61
2022/06/27 04:05:08;;;;;;;1.83;1.33;;;22.40;58.60;;;;;;5085627;28;20071;-60
2022/06/27 04:07:35;;;;;;;1.40;1.30;;;22.30;58.60;;;;;;5083972;28;20525;-61
2022/06/27 04:10:02;;;;;;;1.55;1.45;;;22.30;58.60;;;;;;5080545;28;20036;-62
2022/06/27 04:12:28;;;;;;;1.58;1.48;;;22.30;58.50;;;;;;5084264;28;20033;-58
2022/06/27 04:14:54;;;;;;;1.73;1.63;;;22.30;58.50;;;;;;5082998;28;20071;-59
2022/06/27 04:17:20;;;;;;;1.48;1.38;;;22.30;58.50;;;;;;5083287;28;20102;-59
2022/06/27 04:19:46;;;;;;;1.50;1.40;;;22.20;58.40;;;;;;5089842;28;20020;-58
2022/06/27 04:22:12;;;;;;;1.60;1.50;;;22.20;58.40;;;;;;5093433;28;20762;-59
2022/06/27 04:24:38;;;;;;;1.60;1.50;;;22.20;58.50;;;;;;5104061;28;20036;-59
2022/06/27 04:27:05;;;;;;;1.70;1.60;;;22.20;58.50;;;;;;5083137;28;20028;-60
2022/06/27 04:29:31;;;;;;;1.65;1.52;;;22.10;58.50;;;;;;5101243;28;20101;-59
2022/06/27 04:31:58;;;;;;;1.40;1.30;;;22.10;58.50;;;;;;5074144;28;20025;-58
2022/06/27 04:34:24;;;;;;;1.55;1.45;;;22.10;58.70;;;;;;5076171;28;20146;-60
2022/06/27 04:36:51;;;;;;;1.90;1.77;;;22.10;58.70;;;;;;5068728;28;20090;-60
2022/06/27 04:39:18;;;;;;;1.52;1.42;;;22.10;58.50;;;;;;5093500;28;20032;-59
2022/06/27 04:41:46;;;;;;;1.67;1.58;;;22.00;58.40;;;;;;5082341;28;20051;-60
2022/06/27 04:44:12;;;;;;;1.55;1.45;;;22.00;58.40;;;;;;5083540;28;20051;-60
2022/06/27 04:46:42;;;;;;;1.48;1.38;;;22.00;58.40;;;;;;5083385;28;20048;-60
2022/06/27 04:49:08;;;;;;;2.03;1.70;;;22.00;58.40;;;;;;5082273;28;20099;-60
2022/06/27 04:51:35;;;;;;;1.45;1.35;;;21.90;58.60;;;;;;5087383;28;20056;-60
2022/06/27 04:54:01;;;;;;;1.50;1.40;;;21.90;58.50;;;;;;5081258;28;20028;-60
2022/06/27 04:56:28;;;;;;;1.52;1.42;;;21.90;58.60;;;;;;5082970;28;20946;-60
2022/06/27 04:58:54;;;;;;;;;;;21.90;58.50;;;;;;5083435;28;20024;-60
2022/06/27 05:01:20;;;;;;;1.63;1.52;;;21.80;58.50;;;;;;5080682;28;19912;-60
2022/06/27 05:03:47;;;;;;;1.48;1.35;;;21.80;58.50;;;;;;5082614;28;20017;-58
2022/06/27 05:06:13;;;;;;;1.57;1.47;;;21.80;58.40;;;;;;5087158;28;20040;-58
2022/06/27 05:08:39;;;;;;;1.58;1.48;;;21.70;58.50;;;;;;5077126;28;20039;-58
2022/06/27 05:11:05;;;;;;;1.50;1.40;;;21.70;58.40;;;;;;5095318;28;20498;-58
2022/06/27 05:13:32;;;;;;;1.50;1.40;;;21.70;58.60;;;;;;5103056;28;20024;-58
2022/06/27 05:15:58;;;;;;;2.20;1.75;;;21.70;58.60;;;;;;5102195;28;20055;-58
2022/06/27 05:18:24;;;;;;;1.30;1.13;;;21.70;58.50;;;;;;5102973;28;20024;-58
2022/06/27 05:20:51;;;;;;;1.70;1.60;;;21.60;58.50;;;;;;5097333;28;20073;-58
2022/06/27 05:23:17;;;;;;;1.73;1.63;;;21.60;58.50;;;;;;5080514;28;20016;-59
2022/06/27 05:25:43;;;;;;;1.90;1.70;;;21.60;58.50;;;;;;5082928;28;20032;-58
2022/06/27 05:28:09;;;;;;;1.80;1.70;;;21.60;58.50;;;;;;5097157;28;20083;-58
2022/06/27 05:30:35;;;;;;;1.70;1.60;;;21.60;58.50;;;;;;5103196;28;20032;-57
2022/06/27 05:33:01;;;;;;;1.73;1.63;;;21.50;58.50;;;;;;5078790;28;20032;-58
2022/06/27 05:35:28;;;;;;;1.58;1.48;;;21.50;58.50;;;;;;5063790;28;20048;-58
2022/06/27 05:37:55;;;;;;;1.80;1.70;;;21.50;58.50;;;;;;5081708;28;20027;-62
2022/06/27 05:40:22;;;;;;;1.85;1.75;;;21.50;58.40;;;;;;5082891;28;20064;-59
2022/06/27 05:42:49;;;;;;;1.95;1.85;;;21.50;58.60;;;;;;5082664;28;20063;-59
2022/06/27 05:45:15;;;;;;;;;;;21.40;58.50;;;;;;5099448;28;20098;-59
2022/06/27 05:47:42;;;;;;;1.80;1.70;;;21.40;58.50;;;;;;5100153;28;19904;-59
2022/06/27 05:50:08;;;;;;;2.10;1.90;;;21.40;58.60;;;;;;5102859;28;20039;-58
2022/06/27 05:52:35;;;;;;;1.73;1.63;;;21.30;58.50;;;;;;5101515;28;20032;-57
2022/06/27 05:55:02;;;;;;;1.70;1.60;;;21.30;58.50;;;;;;5102787;28;20028;-56
2022/06/27 05:57:28;;;;;;;1.75;1.65;;;21.30;58.50;;;;;;5079014;28;20064;-60
2022/06/27 05:59:55;;;;;;;1.90;1.80;;;21.30;58.50;;;;;;5101928;28;20194;-60
2022/06/27 06:02:25;;;;;;;2.00;1.90;;;21.20;58.50;;;;;;5082471;28;20032;-60
2022/06/27 06:04:53;;;;;;;1.95;1.80;;;21.20;58.60;;;;;;5082097;28;20047;-61
2022/06/27 06:07:22;;;;;;;2.03;1.83;;;21.20;58.60;;;;;;5072508;28;20024;-62
2022/06/27 06:09:49;;;;;;;1.90;1.73;;;21.20;58.60;;;;;;5077275;28;20037;-60
2022/06/27 06:12:17;;;;;;;1.73;1.63;;;21.10;58.50;;;;;;5082288;28;20023;-59
2022/06/27 06:15:02;;;;;;;2.22;2.03;;;21.10;58.60;;;;;;5022953;28;20116;-59
2022/06/27 06:17:33;;;;;;;1.77;1.67;;;21.10;58.60;;;;;;5018987;28;20074;-61
2022/06/27 06:19:59;;;;;;;1.50;1.40;;;21.10;58.70;;;;;;4986097;28;20731;-59
2022/06/27 06:22:25;;;;;;;2.17;1.98;;;21.00;58.60;;;;;;5020825;28;20030;-59
2022/06/27 06:24:52;;;;;;;2.00;1.85;;;21.00;58.60;;;;;;5035849;28;20033;-59
2022/06/27 06:27:18;;;;;;;1.88;1.73;;;21.00;58.60;;;;;;5020367;28;20037;-59
2022/06/27 06:29:44;;;;;;;2.20;2.00;;;21.00;58.50;;;;;;5041241;28;20084;-60
2022/06/27 06:32:11;;;;;;;3.00;1.77;;;20.90;58.70;;;;;;5002772;28;20038;-59
2022/06/27 06:34:37;;;;;;;1.83;1.73;;;20.90;58.70;;;;;;4997321;28;20902;-59
2022/06/27 06:37:05;;;;;;;2.10;1.90;;;20.90;58.70;;;;;;5023731;28;20029;-59
2022/06/27 06:39:31;;;;;;;;;;;20.90;58.70;;;;;;5028203;28;20132;-59
2022/06/27 06:42:00;;;;;;;2.05;1.80;;;20.90;58.60;;;;;;5022196;28;19980;-60
2022/06/27 06:44:26;;;;;;;2.00;1.80;;;20.80;58.70;;;;;;5020535;28;20026;-59
2022/06/27 06:46:54;;;;;;;2.15;2.00;;;20.80;58.80;;;;;;5022677;28;20118;-59
2022/06/27 06:49:21;;;;;;;2.28;2.08;;;20.80;58.80;;;;;;5017362;28;20046;-59
2022/06/27 06:51:48;;;;;;;2.13;1.92;;;20.80;58.80;;;;;;5027849;28;20040;-58
2022/06/27 06:54:17;;;;;;;2.00;1.90;;;20.70;58.80;;;;;;5075693;28;20027;-59
2022/06/27 06:56:46;;;;;;;1.92;1.80;;;20.70;58.80;;;;;;5091088;28;20035;-59
2022/06/27 06:59:13;;;;;;;2.08;1.88;;;20.70;58.80;;;;;;5078228;28;20027;-60
2022/06/27 07:01:39;;;;;;;1.83;1.73;;;20.60;58.70;;;;;;5086608;28;20039;-67
2022/06/27 07:04:05;;;;;;;1.83;1.67;;;20.60;58.70;;;;;;5080036;28;20063;-61
2022/06/27 07:06:32;;;;;;;2.10;2.00;;;20.60;58.00;;;;;;5084709;28;20040;-61
2022/06/27 07:08:59;;;;;;;2.45;2.25;;;20.60;57.20;;;;;;5074284;28;20129;-62
2022/06/27 07:11:28;;;;;;;2.35;2.15;;;20.60;56.90;;;;;;5071115;28;20133;-59
2022/06/27 07:14:15;;;;;;;8.27;2.88;;;20.60;57.90;;;;;;5034124;28;20046;-61
2022/06/27 07:16:42;;;;;;;3.97;3.58;;;20.60;59.50;;;;;;5034008;28;20042;-60
2022/06/27 07:19:08;;;;;;;;;;;20.50;60.40;;;;;;5035647;28;20136;-59
2022/06/27 07:21:34;;;;;;;3.92;3.53;;;20.50;60.40;;;;;;5018258;28;19913;-62
2022/06/27 07:24:01;;;;;;;3.90;3.50;;;20.50;60.80;;;;;;5034904;28;20037;-61
2022/06/27 07:26:28;;;;;;;3.70;3.40;;;20.40;61.20;;;;;;5013397;28;20041;-61
2022/06/27 07:28:55;;;;;;;3.40;3.10;;;20.50;61.60;;;;;;5016869;28;21964;-60
2022/06/27 07:31:21;;;;;;;5.25;3.90;;;20.50;61.90;;;;;;5017337;28;20048;-60
2022/06/27 07:33:51;;;;;;;4.20;3.80;;;20.50;62.30;;;;;;5034778;28;20037;-60
2022/06/27 07:36:19;;;;;;;5.22;4.50;;;20.40;62.80;;;;;;5015770;28;20874;-61
2022/06/27 07:38:49;;;;;;;4.38;3.75;;;20.50;63.30;;;;;;5022254;28;20046;-61
2022/06/27 07:41:16;;;;;;;5.80;4.85;;;20.40;63.70;;;;;;5044317;28;20029;-60
2022/06/27 07:43:46;;;;;;;4.95;4.28;;;20.40;64.20;;;;;;5044747;28;20854;-60
2022/06/27 07:46:12;;;;;;;4.35;3.95;;;20.50;64.50;;;;;;5043884;28;20545;-63
2022/06/27 07:48:39;;;;;;;7.38;5.97;;;20.50;64.70;;;;;;5039505;28;20041;-59
2022/06/27 07:51:05;;;;;;;4.10;3.70;;;20.50;64.60;;;;;;5050062;28;20036;-57
2022/06/27 07:53:31;;;;;;;7.03;4.88;;;20.50;63.50;;;;;;5077387;28;20561;-60
2022/06/27 07:56:01;;;;;;;8.82;6.90;;;20.50;64.10;;;;;;5083659;28;20089;-59
2022/06/27 07:58:33;;;;;;;12.88;9.10;;;20.50;65.60;;;;;;5082823;28;20036;-60
2022/06/27 08:01:27;;;;;;;18.92;11.75;;;20.50;67.20;;;;;;5082879;28;20025;-60
2022/06/27 08:03:53;;;;;;;27.70;14.55;;;20.60;69.30;;;;;;5088285;28;20080;-58
2022/06/27 08:06:24;;;;;;;35.38;17.15;;;20.60;72.10;;;;;;5082966;28;20245;-60
2022/06/27 08:09:07;;;;;;;30.88;17.70;;;20.70;75.40;;;;;;5075379;28;20745;-59
2022/06/27 08:11:37;;;;;;;19.23;10.70;;;20.70;76.80;;;;;;5074635;28;20032;-54
2022/06/27 08:14:09;;;;;;;22.23;12.68;;;20.80;74.00;;;;;;5068094;28;20029;-55
2022/06/27 08:16:36;;;;;;;24.52;12.73;;;20.80;72.50;;;;;;5069699;28;20603;-57
2022/06/27 08:19:03;;;;;;;30.30;22.80;;;20.80;72.80;;;;;;5072974;28;20029;-60
2022/06/27 08:21:30;;;;;;;29.20;22.05;;;20.80;74.00;;;;;;5070459;28;20040;-59
2022/06/27 08:24:00;;;;;;;25.02;22.15;;;20.90;74.00;;;;;;5073348;28;20035;-59
2022/06/27 08:26:27;;;;;;;17.40;13.13;;;20.90;73.90;;;;;;5072856;28;20773;-58
2022/06/27 08:28:54;;;;;;;15.93;11.40;;;20.90;72.70;;;;;;5073865;28;20037;-58
2022/06/27 08:31:21;;;;;;;11.40;8.25;;;20.90;71.20;;;;;;5079743;28;20495;-59
2022/06/27 08:33:49;;;;;;;10.88;8.32;;;21.00;69.30;;;;;;5070216;28;20111;-60
2022/06/27 08:36:15;;;;;;;11.88;9.00;;;21.00;68.60;;;;;;5072631;28;20033;-58
2022/06/27 08:38:52;;;;;;;15.15;9.40;;;21.00;68.30;;;;;;5081485;28;20035;-59
2022/06/27 08:41:20;;;;;;;12.98;8.40;;;21.00;68.10;;;;;;5092091;28;20042;-59
2022/06/27 08:43:48;;;;;;;9.80;7.90;;;21.00;68.10;;;;;;5096187;28;20048;-58
2022/06/27 08:46:15;;;;;;;9.32;6.47;;;21.00;67.80;;;;;;5080302;28;20027;-59
2022/06/27 08:48:42;;;;;;;9.90;7.03;;;21.10;67.50;;;;;;5080992;28;20057;-59
2022/06/27 08:51:09;;;;;;;9.73;6.63;;;21.10;67.20;;;;;;5082104;28;20120;-59
2022/06/27 08:53:37;;;;;;;9.13;5.88;;;21.10;66.90;;;;;;5082069;28;20031;-59
2022/06/27 08:56:03;;;;;;;7.82;5.35;;;21.10;65.90;;;;;;5082116;28;20059;-59
2022/06/27 08:58:29;;;;;;;5.73;5.13;;;21.10;64.70;;;;;;5083354;28;20085;-59
2022/06/27 09:00:56;;;;;;;8.10;5.60;;;21.10;64.50;;;;;;5081769;28;20028;-59
2022/06/27 09:03:23;;;;;;;8.13;5.70;;;21.10;64.50;;;;;;5082363;28;20059;-59
2022/06/27 09:05:59;;;;;;;8.88;5.68;;;21.20;64.50;;;;;;5083633;28;20052;-59
2022/06/27 09:08:28;;;;;;;7.00;5.38;;;21.20;64.60;;;;;;5076538;28;20028;-59
2022/06/27 09:10:56;;;;;;;7.97;5.80;;;21.20;64.60;;;;;;5083163;28;20029;-59
2022/06/27 09:13:23;;;;;;;6.10;5.00;;;21.20;64.60;;;;;;5085391;28;20139;-59
2022/06/27 09:15:53;;;;;;;9.55;5.50;;;21.20;64.50;;;;;;5087117;28;20028;-59
2022/06/27 09:18:22;;;;;;;6.85;5.40;;;21.20;64.50;;;;;;5082687;28;20132;-59
2022/06/27 09:20:55;;;;;;;5.85;4.88;;;21.20;64.40;;;;;;5088590;28;20099;-59
2022/06/27 09:23:35;;;;;;;5.38;4.82;;;21.20;64.40;;;;;;5082696;28;20082;-59
2022/06/27 09:26:09;;;;;;;6.93;5.22;;;21.20;64.30;;;;;;5079261;28;20039;-59
2022/06/27 09:28:39;;;;;;;6.55;4.43;;;21.30;64.30;;;;;;5062397;28;20079;-59
2022/06/27 09:31:10;;;;;;;6.32;4.82;;;21.30;64.20;;;;;;5062574;28;20112;-59
2022/06/27 09:33:41;;;;;;;5.80;4.63;;;21.30;64.20;;;;;;5087049;28;20036;-59
2022/06/27 09:36:11;;;;;;;6.53;4.90;;;21.30;64.20;;;;;;5076990;28;20513;-59
2022/06/27 09:38:41;;;;;;;5.10;4.60;;;21.30;64.00;;;;;;5088491;28;20059;-59
2022/06/27 09:41:10;;;;;;;6.45;4.55;;;21.30;64.00;;;;;;5082155;28;20029;-59
2022/06/27 09:43:42;;;;;;;6.50;4.65;;;21.30;63.90;;;;;;5082443;28;20044;-59
2022/06/27 09:46:10;;;;;;;5.80;4.65;;;21.40;63.90;;;;;;5081916;28;20127;-59
2022/06/27 09:48:38;;;;;;;5.30;4.78;;;21.40;63.80;;;;;;5080823;28;20028;-58
2022/06/27 09:51:04;;;;;;;5.25;4.57;;;21.40;63.80;;;;;;5080767;28;20028;-59
2022/06/27 09:53:30;;;;;;;5.00;4.50;;;21.40;63.70;;;;;;5064579;28;20082;-59
2022/06/27 09:55:58;;;;;;;4.90;4.40;;;21.40;63.70;;;;;;5076910;28;20033;-59
2022/06/27 09:58:25;;;;;;;5.45;4.07;;;21.40;63.60;;;;;;5080185;28;20031;-59
2022/06/27 10:00:51;;;;;;;5.20;4.50;;;21.40;63.60;;;;;;5081395;28;20036;-59
2022/06/27 10:03:17;;;;;;;4.70;4.18;;;21.40;63.60;;;;;;5086604;28;20032;-59
2022/06/27 10:05:44;;;;;;;5.57;4.10;;;21.50;63.50;;;;;;5082459;28;20595;-59
2022/06/27 10:08:10;;;;;;;4.90;4.40;;;21.40;63.40;;;;;;5074647;28;20024;-59
2022/06/27 10:11:01;;;;;;;5.35;4.22;;;21.50;63.40;;;;;;5082114;28;20044;-59
2022/06/27 10:13:31;;;;;;;4.80;4.18;;;21.50;63.40;;;;;;5092132;28;20062;-59
2022/06/27 10:16:06;;;;;;;5.05;4.40;;;21.50;63.30;;;;;;5102613;28;20058;-58
2022/06/27 10:18:59;;;;;;;4.70;4.22;;;21.50;63.40;;;;;;5072948;28;20025;-59
2022/06/27 10:21:27;;;;;;;3.97;3.58;;;21.50;63.20;;;;;;5073913;28;20043;-59
2022/06/27 10:24:24;;;;;;;4.78;3.88;;;21.50;63.10;;;;;;5090738;28;20102;-59
2022/06/27 10:27:02;;;;;;;4.25;3.80;;;21.60;63.20;;;;;;5077669;28;20797;-59
2022/06/27 10:29:28;;;;;;;;;;;21.60;63.10;;;;;;5062854;28;20041;-59
2022/06/27 10:31:54;;;;;;;4.25;3.85;;;21.50;62.80;;;;;;5081357;28;19915;-58
2022/06/27 10:34:46;;;;;;;4.43;4.03;;;21.50;62.90;;;;;;5081952;28;20082;-59
2022/06/27 10:37:36;;;;;;;4.32;3.65;;;21.60;63.00;;;;;;5081757;28;20029;-59
2022/06/27 10:40:20;;;;;;;4.25;3.83;;;21.60;63.00;;;;;;5074013;28;20082;-58
2022/06/27 10:43:04;;;;;;;4.82;3.60;;;21.60;62.80;;;;;;5081064;28;20037;-59
2022/06/27 10:45:30;;;;;;;3.97;3.58;;;21.60;62.70;;;;;;5081741;28;20104;-59
2022/06/27 10:48:02;;;;;;;4.75;3.60;;;21.60;62.70;;;;;;5081814;28;20022;-59
2022/06/27 10:50:38;;;;;;;4.55;4.07;;;21.60;62.70;;;;;;5092552;28;20093;-58
2022/06/27 10:53:21;;;;;;;4.95;3.63;;;21.60;62.60;;;;;;5068533;28;20017;-58
2022/06/27 10:55:48;;;;;;;3.78;3.47;;;21.60;62.60;;;;;;5065749;28;20035;-59
2022/06/27 10:58:25;;;;;;;4.83;3.70;;;21.70;62.50;;;;;;5082175;28;20025;-59
2022/06/27 11:00:51;;;;;;;4.03;3.40;;;21.60;62.40;;;;;;5084544;28;20028;-59
2022/06/27 11:03:27;;;;;;;3.85;3.40;;;21.70;62.40;;;;;;5074325;28;20021;-59
2022/06/27 11:06:01;;;;;;;3.80;3.22;;;21.70;62.50;;;;;;5066281;28;20104;-59
2022/06/27 11:08:27;;;;;;;3.85;3.42;;;21.70;62.50;;;;;;5075656;28;20044;-59
2022/06/27 11:10:53;;;;;;;3.63;3.30;;;21.70;62.30;;;;;;5101910;28;20111;-59
2022/06/27 11:13:39;;;;;;;4.22;3.75;;;21.70;63.00;;;;;;5084229;28;20021;-59
2022/06/27 11:16:07;;;;;;;4.65;3.95;;;21.70;62.30;;;;;;5083256;28;20048;-59
2022/06/27 11:18:47;;;;;;;3.28;2.92;;;21.70;62.10;;;;;;5085473;28;20114;-58
2022/06/27 11:21:15;;;;;;;3.45;3.15;;;21.70;62.10;;;;;;5085385;28;20036;-58
2022/06/27 11:23:58;;;;;;;3.53;3.13;;;21.80;62.10;;;;;;5085835;28;20025;-59
2022/06/27 11:26:29;;;;;;;3.78;3.47;;;21.70;62.10;;;;;;5084850;28;20042;-59
2022/06/27 11:31:58;;;;;;;3.35;3.05;;;21.80;62.00;;;;;;5082469;28;20031;-60
2022/06/27 11:34:26;;;;;;;4.00;3.60;;;21.80;61.90;;;;;;5075599;28;20028;-59
2022/06/27 11:36:52;;;;;;;;;;;21.80;61.90;;;;;;5080142;28;20043;-59
2022/06/27 11:39:34;;;;;;;4.30;3.35;;;21.80;61.80;;;;;;5082821;28;19940;-59
2022/06/27 11:42:09;;;;;;;3.50;3.20;;;21.80;61.90;;;;;;5103047;28;20044;-59
2022/06/27 11:44:56;;;;;;;4.00;3.17;;;21.80;62.60;;;;;;5096766;28;20041;-58
2022/06/27 11:47:25;;;;;;;5.03;3.08;;;21.80;61.80;;;;;;5080936;28;20028;-59
2022/06/27 11:50:03;;;;;;;3.53;3.15;;;21.80;61.70;;;;;;5083126;28;20105;-59
2022/06/27 11:53:03;;;;;;;3.15;2.83;;;21.80;61.80;;;;;;5095951;28;20020;-59
2022/06/27 11:55:30;;;;;;;3.60;3.30;;;21.80;61.70;;;;;;5091034;28;20033;-59
2022/06/27 11:57:59;;;;;;;2.88;2.60;;;21.80;61.60;;;;;;5084711;28;20103;-59
2022/06/27 12:00:30;;;;;;;2.83;2.50;;;21.90;61.70;;;;;;5084296;28;20048;-59
2022/06/27 12:02:59;;;;;;;3.17;2.85;;;21.80;61.60;;;;;;5083290;28;20017;-59
2022/06/27 12:05:25;;;;;;;3.38;3.08;;;21.90;61.70;;;;;;5084529;28;20052;-59
2022/06/27 12:07:51;;;;;;;3.10;2.75;;;21.90;61.60;;;;;;5076912;28;20119;-59
2022/06/27 12:10:33;;;;;;;2.95;2.75;;;21.90;61.60;;;;;;5083986;28;20041;-59
2022/06/27 12:13:19;;;;;;;3.53;3.10;;;21.90;61.50;;;;;;5084022;28;20024;-59
2022/06/27 12:15:46;;;;;;;3.67;3.00;;;21.90;61.60;;;;;;4994709;28;20044;-59
2022/06/27 12:18:12;;;;;;;2.83;2.63;;;21.90;61.60;;;;;;5002353;28;20038;-58
2022/06/27 12:20:40;;;;;;;3.00;2.80;;;21.90;61.50;;;;;;5001564;28;20046;-59
2022/06/27 12:23:06;;;;;;;2.72;2.53;;;21.90;61.50;;;;;;5001316;28;20134;-59
2022/06/27 12:25:35;;;;;;;3.58;2.95;;;21.90;61.50;;;;;;5005748;28;20117;-59
2022/06/27 12:28:05;;;;;;;3.00;2.70;;;21.90;61.50;;;;;;5001214;28;20093;-59
2022/06/27 12:30:32;;;;;;;2.90;2.58;;;21.90;61.50;;;;;;5016316;28;20310;-59
2022/06/27 12:32:58;;;;;;;2.85;2.63;;;22.00;61.50;;;;;;4994271;28;20077;-59
2022/06/27 12:35:24;;;;;;;2.80;2.60;;;22.00;61.50;;;;;;5001140;28;20027;-59
2022/06/27 12:37:51;;;;;;;2.60;2.40;;;22.00;61.50;;;;;;5001770;28;20473;-59
2022/06/27 12:40:18;;;;;;;3.30;3.00;;;22.00;61.50;;;;;;5001286;28;20034;-59
2022/06/27 12:42:44;;;;;;;3.25;2.95;;;22.00;61.50;;;;;;5000444;28;20058;-59
2022/06/27 12:45:10;;;;;;;3.08;2.88;;;22.00;61.50;;;;;;4968790;28;20113;-59
2022/06/27 12:47:36;;;;;;;2.75;2.47;;;22.00;61.50;;;;;;5001532;28;20034;-59
2022/06/27 12:50:03;;;;;;;3.22;2.72;;;22.00;61.40;;;;;;5017193;28;20050;-59
2022/06/27 12:52:29;;;;;;;2.50;2.30;;;22.00;61.40;;;;;;5030297;28;20093;-59
2022/06/27 12:54:55;;;;;;;2.85;2.65;;;22.00;61.40;;;;;;5084577;28;20033;-58
2022/06/27 12:57:22;;;;;;;2.88;2.67;;;22.00;61.40;;;;;;5087688;28;20059;-59
2022/06/27 12:59:48;;;;;;;2.87;2.63;;;22.00;61.40;;;;;;5083030;28;20024;-57